Home > Products > Valid Products > TAF

000
FTUS46 KPQR 010557 CCB
TAFONP
TAF COR
KONP 010557Z 0106/0206 09003KT P6SM SCT015
     FM010700 09004KT 3SM BR FEW002 BKN015
     FM011000 09003KT 1SM BR SCT002 BKN015
     FM011600 36006KT 5SM BR SCT015
     FM011800 34007KT P6SM SKC=



000
FTUS46 KPQR 010557 CCB
TAFONP
TAF COR
KONP 010557Z 0106/0206 09003KT P6SM SCT015
     FM010700 09004KT 3SM BR FEW002 BKN015
     FM011000 09003KT 1SM BR SCT002 BKN015
     FM011600 36006KT 5SM BR SCT015
     FM011800 34007KT P6SM SKC=



000
FTUS46 KPQR 010528 CCA
TAFONP
TAF COR
KONP 010528Z 0106/0206 09003KT P6SM SKC
     FM010700 09004KT 3SM BR SCT002
     FM011000 09003KT 1/2SM FG VV002
     FM011600 36006KT 5SM BR SCT015
     FM011800 34007KT P6SM SKC=



000
FTUS46 KPQR 010528 CCA
TAFONP
TAF COR
KONP 010528Z 0106/0206 09003KT P6SM SKC
     FM010700 09004KT 3SM BR SCT002
     FM011000 09003KT 1/2SM FG VV002
     FM011600 36006KT 5SM BR SCT015
     FM011800 34007KT P6SM SKC=



000
FTUS46 KPQR 010523
TAFAST
TAF
KAST 010523Z 0106/0206 00000KT P6SM OVC100
     FM010900 VRB03KT 5SM BR OVC050
     FM011800 28006KT P6SM BKN100=



000
FTUS46 KPQR 010523
TAFPDX
TAF
KPDX 010523Z 0106/0206 32005KT P6SM SCT060
     FM011300 VRB03KT P6SM SCT012
     FM011700 31005KT P6SM SKC=



000
FTUS46 KPQR 010523
TAFTTD
TAF
KTTD 010523Z 0106/0206 22005KT P6SM SCT080
     FM011300 10002KT P6SM SCT012
     FM011800 VRB03KT P6SM SKC=



000
FTUS46 KPQR 010523
TAFHIO
TAF
KHIO 010523Z 0106/0206 31006KT P6SM SKC
     FM011300 VRB03KT P6SM SCT012
     FM011800 VRB03KT P6SM SKC=



000
FTUS46 KPQR 010523
TAFSLE
TAF
KSLE 010523Z 0106/0206 VRB03KT P6SM SKC
     FM011800 35006KT P6SM SKC=



000
FTUS46 KPQR 010523
TAFEUG
TAF
KEUG 010523Z 0106/0206 VRB03KT P6SM SKC
     FM011800 01007KT P6SM SKC=



000
FTUS46 KPQR 010523
TAFONP
TAF
KONP 010523Z 0106/0206 VRB03KT 1SM BR SKC
     FM011600 36006KT 5SM BR SCT015
     FM011800 34007KT P6SM SKC=



000
FTUS46 KPQR 010523
TAFONP
TAF
KONP 010523Z 0106/0206 VRB03KT 1SM BR SKC
     FM011600 36006KT 5SM BR SCT015
     FM011800 34007KT P6SM SKC=



000
FTUS46 KPQR 010523
TAFEUG
TAF
KEUG 010523Z 0106/0206 VRB03KT P6SM SKC
     FM011800 01007KT P6SM SKC=



000
FTUS46 KPQR 010523
TAFTTD
TAF
KTTD 010523Z 0106/0206 22005KT P6SM SCT080
     FM011300 10002KT P6SM SCT012
     FM011800 VRB03KT P6SM SKC=



000
FTUS46 KPQR 010523
TAFSLE
TAF
KSLE 010523Z 0106/0206 VRB03KT P6SM SKC
     FM011800 35006KT P6SM SKC=



000
FTUS46 KPQR 010523
TAFPDX
TAF
KPDX 010523Z 0106/0206 32005KT P6SM SCT060
     FM011300 VRB03KT P6SM SCT012
     FM011700 31005KT P6SM SKC=



000
FTUS46 KPQR 010523
TAFHIO
TAF
KHIO 010523Z 0106/0206 31006KT P6SM SKC
     FM011300 VRB03KT P6SM SCT012
     FM011800 VRB03KT P6SM SKC=



000
FTUS46 KPQR 010523
TAFAST
TAF
KAST 010523Z 0106/0206 00000KT P6SM OVC100
     FM010900 VRB03KT 5SM BR OVC050
     FM011800 28006KT P6SM BKN100=



000
FTUS46 KPQR 010420 AAA
TAFONP
TAF AMD
KONP 010420Z 0104/0124 00000KT P6SM SKC
     FM010600 VRB03KT 1SM BR SKC
     FM011600 36006KT 5SM BR SCT012
     FM011800 34007KT P6SM SKC=



000
FTUS46 KPQR 010420 AAA
TAFONP
TAF AMD
KONP 010420Z 0104/0124 00000KT P6SM SKC
     FM010600 VRB03KT 1SM BR SKC
     FM011600 36006KT 5SM BR SCT012
     FM011800 34007KT P6SM SKC=



000
FTUS46 KPQR 010256 AAA
TAFPDX
TAF AMD
KPDX 010256Z 0103/0124 32005KT P6SM SCT060
     FM011300 VRB03KT P6SM SCT012
     FM011700 31005KT P6SM SKC=



000
FTUS46 KPQR 010256 AAA
TAFPDX
TAF AMD
KPDX 010256Z 0103/0124 32005KT P6SM SCT060
     FM011300 VRB03KT P6SM SCT012
     FM011700 31005KT P6SM SKC=



000
FTUS46 KPQR 312331
TAFSLE
TAF
KSLE 312331Z 0100/0124 25007KT P6SM BKN050
     FM010200 VRB03KT P6SM SKC
     FM011800 35006KT P6SM SKC=



000
FTUS46 KPQR 312331
TAFHIO
TAF
KHIO 312331Z 0100/0124 24008KT P6SM SCT030 BKN070
     FM010200 31006KT P6SM SKC
     FM011300 VRB03KT P6SM SCT012
     FM011800 VRB03KT P6SM SKC=



000
FTUS46 KPQR 312331
TAFEUG
TAF
KEUG 312331Z 0100/0124 30006KT P6SM BKN050
     FM010300 VRB03KT P6SM SKC
     FM011800 01007KT P6SM SKC=



000
FTUS46 KPQR 312331
TAFPDX
TAF
KPDX 312331Z 0100/0124 35006KT P6SM FEW040 BKN080
     FM010200 32005KT P6SM SCT060
     FM011300 VRB03KT P6SM SCT012
     FM011700 31005KT P6SM SKC=



000
FTUS46 KPQR 312331
TAFTTD
TAF
KTTD 312331Z 0100/0124 22005KT P6SM SCT080
     FM011300 10002KT P6SM SCT012
     FM011800 VRB03KT P6SM SKC=



000
FTUS46 KPQR 312331
TAFAST
TAF
KAST 312331Z 0100/0124 24008KT P6SM SCT060
     FM010600 00000KT P6SM OVC012
     FM011200 VRB03KT 5SM BR OVC008
     FM011800 28006KT P6SM OVC050=



000
FTUS46 KPQR 312331
TAFONP
TAF
KONP 312331Z 0100/0124 32008KT P6SM OVC050
     FM010500 VRB03KT 1SM BR OVC005
     FM011600 36006KT 5SM BR SCT012
     FM011800 34007KT P6SM SKC=



000
FTUS46 KPQR 312331
TAFAST
TAF
KAST 312331Z 0100/0124 24008KT P6SM SCT060
     FM010600 00000KT P6SM OVC012
     FM011200 VRB03KT 5SM BR OVC008
     FM011800 28006KT P6SM OVC050=



000
FTUS46 KPQR 312331
TAFPDX
TAF
KPDX 312331Z 0100/0124 35006KT P6SM FEW040 BKN080
     FM010200 32005KT P6SM SCT060
     FM011300 VRB03KT P6SM SCT012
     FM011700 31005KT P6SM SKC=



000
FTUS46 KPQR 312331
TAFEUG
TAF
KEUG 312331Z 0100/0124 30006KT P6SM BKN050
     FM010300 VRB03KT P6SM SKC
     FM011800 01007KT P6SM SKC=



000
FTUS46 KPQR 312331
TAFSLE
TAF
KSLE 312331Z 0100/0124 25007KT P6SM BKN050
     FM010200 VRB03KT P6SM SKC
     FM011800 35006KT P6SM SKC=



000
FTUS46 KPQR 312331
TAFTTD
TAF
KTTD 312331Z 0100/0124 22005KT P6SM SCT080
     FM011300 10002KT P6SM SCT012
     FM011800 VRB03KT P6SM SKC=



000
FTUS46 KPQR 312331
TAFONP
TAF
KONP 312331Z 0100/0124 32008KT P6SM OVC050
     FM010500 VRB03KT 1SM BR OVC005
     FM011600 36006KT 5SM BR SCT012
     FM011800 34007KT P6SM SKC=



000
FTUS46 KPQR 312331
TAFHIO
TAF
KHIO 312331Z 0100/0124 24008KT P6SM SCT030 BKN070
     FM010200 31006KT P6SM SKC
     FM011300 VRB03KT P6SM SCT012
     FM011800 VRB03KT P6SM SKC=



000
FTUS46 KPQR 312138 AAA
TAFAST
TAF AMD
KAST 312138Z 3122/0118 24008KT P6SM SCT025 BKN050
     FM010400 25004KT P6SM OVC012
     FM011200 VRB03KT 5SM BR OVC008=



000
FTUS46 KPQR 312138 AAA
TAFAST
TAF AMD
KAST 312138Z 3122/0118 24008KT P6SM SCT025 BKN050
     FM010400 25004KT P6SM OVC012
     FM011200 VRB03KT 5SM BR OVC008=



000
FTUS46 KPQR 312050 AAB
TAFPDX
TAF AMD
KPDX 312050Z 3121/0118 35006KT P6SM SCT030 BKN070
     FM010200 32005KT P6SM SCT060
     FM011300 VRB03KT P6SM SCT012=



000
FTUS46 KPQR 312021 AAB
TAFHIO
TAF AMD
KHIO 312021Z 3120/0118 24008KT P6SM SCT030 BKN070
     FM010200 31006KT P6SM SKC
     FM011300 VRB03KT P6SM SCT012=



000
FTUS46 KPQR 312021 AAB
TAFHIO
TAF AMD
KHIO 312021Z 3120/0118 24008KT P6SM SCT030 BKN070
     FM010200 31006KT P6SM SKC
     FM011300 VRB03KT P6SM SCT012=



000
FTUS46 KPQR 311913 AAA
TAFHIO
TAF AMD
KHIO 311913Z 3119/0118 VRB02KT P6SM BKN025
     FM312100 26003KT P6SM SCT030 BKN060
     FM010200 31006KT P6SM SKC
     FM011300 VRB03KT P6SM SCT012=



000
FTUS46 KPQR 311913 AAA
TAFHIO
TAF AMD
KHIO 311913Z 3119/0118 VRB02KT P6SM BKN025
     FM312100 26003KT P6SM SCT030 BKN060
     FM010200 31006KT P6SM SKC
     FM011300 VRB03KT P6SM SCT012=



000
FTUS46 KPQR 311911 AAA
TAFPDX
TAF AMD
KPDX 311911Z 3119/0118 26004KT P6SM BKN025 BKN060
     FM312000 36006KT P6SM SCT020 BKN040
     FM010200 32005KT P6SM FEW050
     FM011300 VRB03KT P6SM SCT012=



000
FTUS46 KPQR 311911 AAA
TAFPDX
TAF AMD
KPDX 311911Z 3119/0118 26004KT P6SM BKN025 BKN060
     FM312000 36006KT P6SM SCT020 BKN040
     FM010200 32005KT P6SM FEW050
     FM011300 VRB03KT P6SM SCT012=



000
FTUS46 KPQR 311910 AAA
TAFONP
TAF AMD
KONP 311910Z 3119/0118 26004KT P6SM BKN060
     FM312000 32008KT P6SM BKN050
     FM010500 VRB03KT 1SM BR OVC005
     FM011700 36006KT 5SM BR BKN012=



000
FTUS46 KPQR 311734 CCA
TAFTTD
TAF COR
KTTD 311734Z 3118/0118 22005KT P6SM BKN020 BKN050 OVC080
     FM311900 22005KT P6SM SCT020 BKN050
     FM010200 28005KT P6SM FEW050
     FM011300 10002KT P6SM SCT012=



000
FTUS46 KPQR 311734 CCA
TAFTTD
TAF COR
KTTD 311734Z 3118/0118 22005KT P6SM BKN020 BKN050 OVC080
     FM311900 22005KT P6SM SCT020 BKN050
     FM010200 28005KT P6SM FEW050
     FM011300 10002KT P6SM SCT012=



000
FTUS46 KPQR 311730
TAFTTD
TAF
KTTD 311730Z 3118/0118 22005KT P6SM SCT020 BKN050 OVC080
     FM010200 28005KT P6SM FEW050
     FM011300 10002KT P6SM SCT012=



000
FTUS46 KPQR 311730
TAFPDX
TAF
KPDX 311730Z 3118/0118 36004KT P6SM BKN018 BKN050 OVC080
     FM311900 36006KT P6SM SCT020 BKN040
     FM010200 32005KT P6SM FEW050
     FM011300 VRB03KT P6SM SCT012=



000
FTUS46 KPQR 311730
TAFSLE
TAF
KSLE 311730Z 3118/0118 20008KT P6SM SKC
     FM312000 25007KT P6SM SCT050
     FM010300 30005KT P6SM SKC=



000
FTUS46 KPQR 311730
TAFAST
TAF
KAST 311730Z 3118/0118 24005KT P6SM SCT015 SCT040
     FM312000 26008KT P6SM SCT025 BKN050
     FM010200 25004KT P6SM OVC012
     FM011200 VRB03KT 5SM BR OVC008=



000
FTUS46 KPQR 311730
TAFHIO
TAF
KHIO 311730Z 3118/0118 26003KT P6SM SCT050 BKN080
     FM010200 31006KT P6SM SKC
     FM011300 VRB03KT P6SM SCT012=



000
FTUS46 KPQR 311730
TAFONP
TAF
KONP 311730Z 3118/0118 VRB03KT 4SM BR SCT004 BKN060
     FM312000 32008KT P6SM SCT015 BKN040
     FM010500 VRB03KT 1SM BR OVC005
     FM011700 36006KT 5SM BR BKN012=



000
FTUS46 KPQR 311730
TAFEUG
TAF
KEUG 311730Z 3118/0118 30005KT P6SM FEW012
     FM311900 29006KT P6SM SKC
     FM312100 30006KT P6SM SCT050
     FM010400 VRB03KT P6SM SKC=



000
FTUS46 KPQR 311730
TAFEUG
TAF
KEUG 311730Z 3118/0118 30005KT P6SM FEW012
     FM311900 29006KT P6SM SKC
     FM312100 30006KT P6SM SCT050
     FM010400 VRB03KT P6SM SKC=



000
FTUS46 KPQR 311730
TAFHIO
TAF
KHIO 311730Z 3118/0118 26003KT P6SM SCT050 BKN080
     FM010200 31006KT P6SM SKC
     FM011300 VRB03KT P6SM SCT012=



000
FTUS46 KPQR 311730
TAFSLE
TAF
KSLE 311730Z 3118/0118 20008KT P6SM SKC
     FM312000 25007KT P6SM SCT050
     FM010300 30005KT P6SM SKC=



000
FTUS46 KPQR 311730
TAFONP
TAF
KONP 311730Z 3118/0118 VRB03KT 4SM BR SCT004 BKN060
     FM312000 32008KT P6SM SCT015 BKN040
     FM010500 VRB03KT 1SM BR OVC005
     FM011700 36006KT 5SM BR BKN012=



000
FTUS46 KPQR 311730
TAFAST
TAF
KAST 311730Z 3118/0118 24005KT P6SM SCT015 SCT040
     FM312000 26008KT P6SM SCT025 BKN050
     FM010200 25004KT P6SM OVC012
     FM011200 VRB03KT 5SM BR OVC008=



000
FTUS46 KPQR 311730
TAFPDX
TAF
KPDX 311730Z 3118/0118 36004KT P6SM BKN018 BKN050 OVC080
     FM311900 36006KT P6SM SCT020 BKN040
     FM010200 32005KT P6SM FEW050
     FM011300 VRB03KT P6SM SCT012=



000
FTUS46 KPQR 311730
TAFTTD
TAF
KTTD 311730Z 3118/0118 22005KT P6SM SCT020 BKN050 OVC080
     FM010200 28005KT P6SM FEW050
     FM011300 10002KT P6SM SCT012=



000
FTUS46 KPQR 311636 AAA
TAFAST
TAF AMD
KAST 311636Z 3117/0112 20003KT P6SM SCT015 BKN040
     FM312000 26008KT P6SM SCT025 BKN050=



000
FTUS46 KPQR 311636 AAA
TAFAST
TAF AMD
KAST 311636Z 3117/0112 20003KT P6SM SCT015 BKN040
     FM312000 26008KT P6SM SCT025 BKN050=



000
FTUS46 KPQR 311634 AAB
TAFEUG
TAF AMD
KEUG 311634Z 3117/0112 20004KT P6SM BKN007 OVC015
      TEMPO 3117/3118 SCT007 BKN015
     FM311800 30006KT P6SM SCT007 BKN070=



000
FTUS46 KPQR 311606 AAB
TAFONP
TAF AMD
KONP 311606Z 3116/0112 VRB03KT 1SM BR OVC005
      TEMPO 3116/3118 1/2SM FG OVC001
     FM311800 VRB03KT 5SM BR OVC009
     FM311900 23008KT P6SM BKN015 BKN025
     FM312200 33008KT P6SM FEW015 SCT025
     FM010500 VRB03KT 1SM BR BKN005=



000
FTUS46 KPQR 311604 AAB
TAFSLE
TAF AMD
KSLE 311604Z 3116/0112 16008KT P6SM FEW007 SCT070
     FM312100 25007KT P6SM SKC=



000
FTUS46 KPQR 311504 AAA
TAFSLE
TAF AMD
KSLE 311504Z 3115/0112 VRB04KT P6SM BKN004 OVC080
     FM311700 18004KT P6SM FEW007 BKN015 OVC080
     FM311800 30006KT P6SM FEW050 SCT080=



000
FTUS46 KPQR 311504 AAA
TAFSLE
TAF AMD
KSLE 311504Z 3115/0112 VRB04KT P6SM BKN004 OVC080
     FM311700 18004KT P6SM FEW007 BKN015 OVC080
     FM311800 30006KT P6SM FEW050 SCT080=



000
FTUS46 KPQR 311452 AAA
TAFPDX
TAF AMD
KPDX 311452Z 3115/0112 VRB04KT P6SM SCT050 OVC080
     FM311800 30006KT P6SM FEW050 SCT080=



000
FTUS46 KPQR 311452 AAA
TAFPDX
TAF AMD
KPDX 311452Z 3115/0112 VRB04KT P6SM SCT050 OVC080
     FM311800 30006KT P6SM FEW050 SCT080=



000
FTUS46 KPQR 311422 AAA
TAFONP
TAF AMD
KONP 311422Z 3114/0112 VRB03KT 1SM BR OVC005
      TEMPO 3114/3116 1/2SM FG OVC001
     FM311600 VRB03KT 5SM BR OVC009
     FM311900 23008KT P6SM BKN015 BKN025
     FM312200 33008KT P6SM FEW015 SCT025
     FM010500 VRB03KT 1SM BR BKN005=



000
FTUS46 KPQR 311422 AAA
TAFONP
TAF AMD
KONP 311422Z 3114/0112 VRB03KT 1SM BR OVC005
      TEMPO 3114/3116 1/2SM FG OVC001
     FM311600 VRB03KT 5SM BR OVC009
     FM311900 23008KT P6SM BKN015 BKN025
     FM312200 33008KT P6SM FEW015 SCT025
     FM010500 VRB03KT 1SM BR BKN005=



000
FTUS46 KPQR 311344 AAA
TAFEUG
TAF AMD
KEUG 311344Z 3114/0112 18004KT P6SM SCT006 BKN070
      TEMPO 3114/3116 5SM BR BKN006
     FM311600 19004KT P6SM SCT012 BKN070
      TEMPO 3116/3117 BKN012
     FM311800 30006KT P6SM FEW050 SCT070=



000
FTUS46 KPQR 311344 AAA
TAFEUG
TAF AMD
KEUG 311344Z 3114/0112 18004KT P6SM SCT006 BKN070
      TEMPO 3114/3116 5SM BR BKN006
     FM311600 19004KT P6SM SCT012 BKN070
      TEMPO 3116/3117 BKN012
     FM311800 30006KT P6SM FEW050 SCT070=



000
FTUS46 KPQR 311120
TAFPDX
TAF
KPDX 311120Z 3112/0112 VRB03KT P6SM FEW025 SCT080
     FM311400 VRB04KT P6SM SCT020 BKN050
     FM311800 30006KT P6SM FEW050 SCT070=



000
FTUS46 KPQR 311120
TAFHIO
TAF
KHIO 311120Z 3112/0112 VRB03KT P6SM FEW025 SCT080
     FM311400 VRB04KT P6SM SCT020 BKN050
     FM311800 30006KT P6SM FEW050 SCT070=



000
FTUS46 KPQR 311120
TAFONP
TAF
KONP 311120Z 3112/0112 VRB03KT 1SM BR OVC005
     FM311500 VRB03KT 5SM BR OVC009
     FM311900 23008KT P6SM BKN015 BKN025
     FM312200 33008KT P6SM FEW015 SCT025
     FM010500 VRB03KT 1SM BR BKN005=



000
FTUS46 KPQR 311120
TAFTTD
TAF
KTTD 311120Z 3112/0112 10003KT P6SM FEW025 SCT080
     FM311400 10004KT P6SM SCT020 BKN050
     FM311800 25004KT P6SM FEW050 SCT070=



000
FTUS46 KPQR 311120
TAFAST
TAF
KAST 311120Z 3112/0112 VRB03KT P6SM FEW015 SCT025
     FM311500 20003KT P6SM SCT015 BKN025
     FM312000 26008KT P6SM SCT025 BKN050=



000
FTUS46 KPQR 311120
TAFEUG
TAF
KEUG 311120Z 3112/0112 18003KT P6SM FEW025 SCT080
     FM311400 18004KT P6SM SCT020 BKN050
     FM311800 30006KT P6SM FEW050 SCT070=



000
FTUS46 KPQR 311120
TAFAST
TAF
KAST 311120Z 3112/0112 VRB03KT P6SM FEW015 SCT025
     FM311500 20003KT P6SM SCT015 BKN025
     FM312000 26008KT P6SM SCT025 BKN050=



000
FTUS46 KPQR 311120
TAFTTD
TAF
KTTD 311120Z 3112/0112 10003KT P6SM FEW025 SCT080
     FM311400 10004KT P6SM SCT020 BKN050
     FM311800 25004KT P6SM FEW050 SCT070=



000
FTUS46 KPQR 311120
TAFPDX
TAF
KPDX 311120Z 3112/0112 VRB03KT P6SM FEW025 SCT080
     FM311400 VRB04KT P6SM SCT020 BKN050
     FM311800 30006KT P6SM FEW050 SCT070=



000
FTUS46 KPQR 311120
TAFEUG
TAF
KEUG 311120Z 3112/0112 18003KT P6SM FEW025 SCT080
     FM311400 18004KT P6SM SCT020 BKN050
     FM311800 30006KT P6SM FEW050 SCT070=



000
FTUS46 KPQR 311120
TAFSLE
TAF
KSLE 311120Z 3112/0112 16003KT P6SM FEW025 BKN070
     FM311500 VRB04KT P6SM SCT020 BKN050
     FM311800 30006KT P6SM FEW050 SCT070=



000
FTUS46 KPQR 311120
TAFHIO
TAF
KHIO 311120Z 3112/0112 VRB03KT P6SM FEW025 SCT080
     FM311400 VRB04KT P6SM SCT020 BKN050
     FM311800 30006KT P6SM FEW050 SCT070=



000
FTUS46 KPQR 311120
TAFSLE
TAF
KSLE 311120Z 3112/0112 16003KT P6SM FEW025 BKN070
     FM311500 VRB04KT P6SM SCT020 BKN050
     FM311800 30006KT P6SM FEW050 SCT070=



000
FTUS46 KPQR 311120
TAFONP
TAF
KONP 311120Z 3112/0112 VRB03KT 1SM BR OVC005
     FM311500 VRB03KT 5SM BR OVC009
     FM311900 23008KT P6SM BKN015 BKN025
     FM312200 33008KT P6SM FEW015 SCT025
     FM010500 VRB03KT 1SM BR BKN005=



000
FTUS46 KPQR 311013 AAA
TAFAST
TAF AMD
KAST 311013Z 3110/0106 VRB03KT P6SM FEW015 SCT025
     FM311500 20003KT P6SM SCT015 BKN025
     FM312000 26008KT P6SM SCT025 BKN050=



000
FTUS46 KPQR 311005 AAA
TAFEUG
TAF AMD
KEUG 311005Z 3110/0106 18003KT P6SM FEW025 SCT080
     FM311400 18004KT P6SM SCT020 BKN050
     FM311800 30006KT P6SM FEW050 SCT070=



000
FTUS46 KPQR 311005 AAA
TAFSLE
TAF AMD
KSLE 311005Z 3110/0106 16003KT P6SM FEW025 BKN070
     FM311500 VRB04KT P6SM SCT020 BKN050
     FM311800 30006KT P6SM FEW050 SCT070=



000
FTUS46 KPQR 311005 AAA
TAFSLE
TAF AMD
KSLE 311005Z 3110/0106 16003KT P6SM FEW025 BKN070
     FM311500 VRB04KT P6SM SCT020 BKN050
     FM311800 30006KT P6SM FEW050 SCT070=



000
FTUS46 KPQR 311005 AAA
TAFEUG
TAF AMD
KEUG 311005Z 3110/0106 18003KT P6SM FEW025 SCT080
     FM311400 18004KT P6SM SCT020 BKN050
     FM311800 30006KT P6SM FEW050 SCT070=



000
FTUS46 KPQR 311003 AAA
TAFHIO
TAF AMD
KHIO 311003Z 3110/0106 VRB03KT P6SM FEW025 SCT080
     FM311400 VRB04KT P6SM SCT020 BKN050
     FM311800 30006KT P6SM FEW050 SCT070=



000
FTUS46 KPQR 311003 AAA
TAFHIO
TAF AMD
KHIO 311003Z 3110/0106 VRB03KT P6SM FEW025 SCT080
     FM311400 VRB04KT P6SM SCT020 BKN050
     FM311800 30006KT P6SM FEW050 SCT070=



000
FTUS46 KPQR 311003 AAA
TAFTTD
TAF AMD
KTTD 311003Z 3110/0106 10003KT P6SM FEW025 SCT080
     FM311400 10004KT P6SM SCT020 BKN050
     FM311800 25004KT P6SM FEW050 SCT070=



000
FTUS46 KPQR 311003 AAA
TAFTTD
TAF AMD
KTTD 311003Z 3110/0106 10003KT P6SM FEW025 SCT080
     FM311400 10004KT P6SM SCT020 BKN050
     FM311800 25004KT P6SM FEW050 SCT070=



000
FTUS46 KPQR 311002 AAA
TAFONP
TAF AMD
KONP 311002Z 3110/0106 VRB03KT 1SM BR OVC005
     FM311500 VRB03KT 5SM BR OVC009
     FM311900 23008KT P6SM BKN015 BKN025
     FM312200 33008KT P6SM FEW015 SCT025
     FM010500 VRB03KT 1SM BR BKN005=



000
FTUS46 KPQR 311002 AAA
TAFONP
TAF AMD
KONP 311002Z 3110/0106 VRB03KT 1SM BR OVC005
     FM311500 VRB03KT 5SM BR OVC009
     FM311900 23008KT P6SM BKN015 BKN025
     FM312200 33008KT P6SM FEW015 SCT025
     FM010500 VRB03KT 1SM BR BKN005=



000
FTUS46 KPQR 310856 AAA
TAFPDX
TAF AMD
KPDX 310856Z 3109/0106 VRB03KT P6SM FEW090
     FM311000 VRB03KT P6SM FEW025 SCT080
     FM311400 VRB04KT P6SM SCT020 BKN050
     FM311800 30006KT P6SM FEW050 SCT070=



000
FTUS46 KPQR 310856 AAA
TAFPDX
TAF AMD
KPDX 310856Z 3109/0106 VRB03KT P6SM FEW090
     FM311000 VRB03KT P6SM FEW025 SCT080
     FM311400 VRB04KT P6SM SCT020 BKN050
     FM311800 30006KT P6SM FEW050 SCT070=



000
FTUS46 KPQR 310520
TAFAST
TAF
KAST 310520Z 3106/0106 22004KT P6SM VCSH SCT020 BKN035
     FM310800 22004KT P6SM SCT015 OVC020
     FM311400 20003KT P6SM BKN015 BKN025
     FM312000 27008KT P6SM BKN035 BKN050=



000
FTUS46 KPQR 310520
TAFHIO
TAF
KHIO 310520Z 3106/0106 24003KT P6SM FEW070
     FM311000 VRB03KT P6SM BKN015 OVC025
     FM311400 VRB03KT P6SM SCT025 BKN050
     FM312000 30006KT P6SM SCT050 BKN070=



000
FTUS46 KPQR 310520
TAFPDX
TAF
KPDX 310520Z 3106/0106 33006KT P6SM FEW090
     FM311000 26003KT P6SM BKN015 OVC025
     FM311400 24005KT P6SM SCT025 BKN050
     FM312000 30006KT P6SM SCT050 SCT070=



000
FTUS46 KPQR 310520
TAFAST
TAF
KAST 310520Z 3106/0106 22004KT P6SM VCSH SCT020 BKN035
     FM310800 22004KT P6SM SCT015 OVC020
     FM311400 20003KT P6SM BKN015 BKN025
     FM312000 27008KT P6SM BKN035 BKN050=



000
FTUS46 KPQR 310520
TAFSLE
TAF
KSLE 310520Z 3106/0106 27004KT P6SM SCT050 BKN070
     FM311000 VRB03KT P6SM BKN025
     FM311400 VRB03KT P6SM SCT025 BKN050
     FM312000 33006KT P6SM SCT070=



000
FTUS46 KPQR 310520
TAFHIO
TAF
KHIO 310520Z 3106/0106 24003KT P6SM FEW070
     FM311000 VRB03KT P6SM BKN015 OVC025
     FM311400 VRB03KT P6SM SCT025 BKN050
     FM312000 30006KT P6SM SCT050 BKN070=



000
FTUS46 KPQR 310520
TAFONP
TAF
KONP 310520Z 3106/0106 VRB03KT 1/2SM FG VV002
     FM311000 VRB03KT 2SM BR OVC007
     FM311500 VRB03KT 5SM BR BKN007
     FM312000 24008KT P6SM BKN015 BKN025=



000
FTUS46 KPQR 310520
TAFTTD
TAF
KTTD 310520Z 3106/0106 VRB03KT P6SM FEW070
     FM311000 26003KT P6SM BKN015 OVC025
     FM311400 24005KT P6SM SCT025 BKN050
     FM312000 30006KT P6SM SCT050 BKN070=



000
FTUS46 KPQR 310520
TAFPDX
TAF
KPDX 310520Z 3106/0106 33006KT P6SM FEW090
     FM311000 26003KT P6SM BKN015 OVC025
     FM311400 24005KT P6SM SCT025 BKN050
     FM312000 30006KT P6SM SCT050 SCT070=



000
FTUS46 KPQR 310520
TAFONP
TAF
KONP 310520Z 3106/0106 VRB03KT 1/2SM FG VV002
     FM311000 VRB03KT 2SM BR OVC007
     FM311500 VRB03KT 5SM BR BKN007
     FM312000 24008KT P6SM BKN015 BKN025=



000
FTUS46 KPQR 310520
TAFEUG
TAF
KEUG 310520Z 3106/0106 34003KT P6SM SCT050 BKN070
     FM311000 VRB03KT P6SM BKN025
     FM311400 VRB05KT P6SM SCT025 BKN050
     FM312000 34006KT P6SM SCT070=



000
FTUS46 KPQR 310520
TAFEUG
TAF
KEUG 310520Z 3106/0106 34003KT P6SM SCT050 BKN070
     FM311000 VRB03KT P6SM BKN025
     FM311400 VRB05KT P6SM SCT025 BKN050
     FM312000 34006KT P6SM SCT070=



000
FTUS46 KPQR 310520
TAFTTD
TAF
KTTD 310520Z 3106/0106 VRB03KT P6SM FEW070
     FM311000 26003KT P6SM BKN015 OVC025
     FM311400 24005KT P6SM SCT025 BKN050
     FM312000 30006KT P6SM SCT050 BKN070=



000
FTUS46 KPQR 310520
TAFSLE
TAF
KSLE 310520Z 3106/0106 27004KT P6SM SCT050 BKN070
     FM311000 VRB03KT P6SM BKN025
     FM311400 VRB03KT P6SM SCT025 BKN050
     FM312000 33006KT P6SM SCT070=



000
FTUS46 KPQR 310302 AAA
TAFAST
TAF AMD
KAST 310302Z 3103/3124 22005KT P6SM SCT020
     FM310600 22004KT P6SM SCT015 OVC020
     FM311400 20003KT P6SM BKN015 BKN025
     FM312000 27008KT P6SM BKN035 BKN050=



000
FTUS46 KPQR 310302 AAA
TAFAST
TAF AMD
KAST 310302Z 3103/3124 22005KT P6SM SCT020
     FM310600 22004KT P6SM SCT015 OVC020
     FM311400 20003KT P6SM BKN015 BKN025
     FM312000 27008KT P6SM BKN035 BKN050=



000
FTUS46 KPQR 310301 AAA
TAFONP
TAF AMD
KONP 310301Z 3103/3124 VRB03KT P6SM VCFG FEW018
     FM310600 19003KT 1SM BR OVC005
     FM312000 24008KT P6SM BKN015 BKN025=



000
FTUS46 KPQR 310301 AAA
TAFONP
TAF AMD
KONP 310301Z 3103/3124 VRB03KT P6SM VCFG FEW018
     FM310600 19003KT 1SM BR OVC005
     FM312000 24008KT P6SM BKN015 BKN025=



000
FTUS46 KPQR 310254 AAA
TAFPDX
TAF AMD
KPDX 310254Z 3103/3124 31010KT P6SM FEW060 FEW090
     FM310400 30006KT P6SM SKC
     FM311000 26003KT P6SM BKN015 OVC025
     FM311400 24005KT P6SM SCT025 BKN050
     FM312000 30006KT P6SM SCT050 BKN070=



000
FTUS46 KPQR 310254 AAA
TAFPDX
TAF AMD
KPDX 310254Z 3103/3124 31010KT P6SM FEW060 FEW090
     FM310400 30006KT P6SM SKC
     FM311000 26003KT P6SM BKN015 OVC025
     FM311400 24005KT P6SM SCT025 BKN050
     FM312000 30006KT P6SM SCT050 BKN070=



000
FTUS46 KPQR 302340
TAFPDX
TAF
KPDX 302340Z 3100/3124 31007KT P6SM VCSH SCT030 BKN050 BKN070
     FM310400 30004KT P6SM BKN050
     FM311000 26003KT P6SM BKN015 OVC025
     FM311400 24005KT P6SM SCT025 BKN050
     FM312000 30006KT P6SM SCT050 BKN070=



000
FTUS46 KPQR 302340
TAFPDX
TAF
KPDX 302340Z 3100/3124 31007KT P6SM VCSH SCT030 BKN050 BKN070
     FM310400 30004KT P6SM BKN050
     FM311000 26003KT P6SM BKN015 OVC025
     FM311400 24005KT P6SM SCT025 BKN050
     FM312000 30006KT P6SM SCT050 BKN070=



000
FTUS46 KPQR 302340
TAFONP
TAF
KONP 302340Z 3100/3124 20006KT P6SM -SHRA BKN023 BKN040 BKN050
     FM310200 24003KT P6SM BKN007 OVC015
     FM310600 19003KT 1SM BR OVC005
     FM312000 24008KT P6SM BKN015 BKN025=



000
FTUS46 KPQR 302340
TAFHIO
TAF
KHIO 302340Z 3100/3124 32012KT P6SM VCSH BKN025 BKN070
     FM310200 27006KT P6SM SCT025 BKN050
     FM310400 VRB03KT P6SM BKN050
     FM311000 VRB03KT P6SM BKN015 OVC025
     FM311400 VRB03KT P6SM SCT025 BKN050
     FM312000 30006KT P6SM SCT050 BKN070=



000
FTUS46 KPQR 302340
TAFTTD
TAF
KTTD 302340Z 3100/3124 21008KT P6SM -SHRA SCT025 BKN050
     FM310400 25004KT P6SM SCT025 BKN050
     FM311000 26003KT P6SM BKN015 OVC025
     FM311400 24005KT P6SM SCT025 BKN050
     FM312000 30006KT P6SM SCT050 BKN070=



000
FTUS46 KPQR 302340
TAFAST
TAF
KAST 302340Z 3100/3124 28009KT P6SM SCT014 SCT025 BKN050
     FM310300 23006KT P6SM BKN025 OVC040
     FM310600 26006KT P6SM OVC020
     FM311400 20003KT P6SM BKN015 BKN025
     FM312000 27008KT P6SM BKN035 BKN050=



000
FTUS46 KPQR 302340
TAFAST
TAF
KAST 302340Z 3100/3124 28009KT P6SM SCT014 SCT025 BKN050
     FM310300 23006KT P6SM BKN025 OVC040
     FM310600 26006KT P6SM OVC020
     FM311400 20003KT P6SM BKN015 BKN025
     FM312000 27008KT P6SM BKN035 BKN050=



000
FTUS46 KPQR 302340
TAFEUG
TAF
KEUG 302340Z 3100/3124 24010KT P6SM VCSH SCT015 BKN035 BKN050
     FM310200 32006KT P6SM SCT035 BKN050
     FM310400 32004KT P6SM BKN050
     FM311000 VRB03KT P6SM BKN025
     FM311400 VRB05KT P6SM SCT025 BKN050
     FM312000 34006KT P6SM SCT070=



000
FTUS46 KPQR 302340
TAFHIO
TAF
KHIO 302340Z 3100/3124 32012KT P6SM VCSH BKN025 BKN070
     FM310200 27006KT P6SM SCT025 BKN050
     FM310400 VRB03KT P6SM BKN050
     FM311000 VRB03KT P6SM BKN015 OVC025
     FM311400 VRB03KT P6SM SCT025 BKN050
     FM312000 30006KT P6SM SCT050 BKN070=



000
FTUS46 KPQR 302340
TAFONP
TAF
KONP 302340Z 3100/3124 20006KT P6SM -SHRA BKN023 BKN040 BKN050
     FM310200 24003KT P6SM BKN007 OVC015
     FM310600 19003KT 1SM BR OVC005
     FM312000 24008KT P6SM BKN015 BKN025=



000
FTUS46 KPQR 302340
TAFSLE
TAF
KSLE 302340Z 3100/3124 25006KT P6SM -SHRA SCT025 BKN035 BKN050
     FM310400 25005KT P6SM BKN050
     FM311000 VRB03KT P6SM BKN025
     FM311400 VRB03KT P6SM SCT025 BKN050
     FM312000 33006KT P6SM SCT070=



000
FTUS46 KPQR 302340
TAFTTD
TAF
KTTD 302340Z 3100/3124 21008KT P6SM -SHRA SCT025 BKN050
     FM310400 25004KT P6SM SCT025 BKN050
     FM311000 26003KT P6SM BKN015 OVC025
     FM311400 24005KT P6SM SCT025 BKN050
     FM312000 30006KT P6SM SCT050 BKN070=



000
FTUS46 KPQR 302340
TAFEUG
TAF
KEUG 302340Z 3100/3124 24010KT P6SM VCSH SCT015 BKN035 BKN050
     FM310200 32006KT P6SM SCT035 BKN050
     FM310400 32004KT P6SM BKN050
     FM311000 VRB03KT P6SM BKN025
     FM311400 VRB05KT P6SM SCT025 BKN050
     FM312000 34006KT P6SM SCT070=



000
FTUS46 KPQR 302340
TAFSLE
TAF
KSLE 302340Z 3100/3124 25006KT P6SM -SHRA SCT025 BKN035 BKN050
     FM310400 25005KT P6SM BKN050
     FM311000 VRB03KT P6SM BKN025
     FM311400 VRB03KT P6SM SCT025 BKN050
     FM312000 33006KT P6SM SCT070=



000
FTUS46 KPQR 302053 AAB
TAFPDX
TAF AMD
KPDX 302053Z 3021/3118 20012KT P6SM -SHRA SCT022 BKN030 OVC045
     FM310400 30008KT P6SM BKN050
     FM311400 24005KT P6SM SCT025 BKN050=



000
FTUS46 KPQR 302053 AAB
TAFPDX
TAF AMD
KPDX 302053Z 3021/3118 20012KT P6SM -SHRA SCT022 BKN030 OVC045
     FM310400 30008KT P6SM BKN050
     FM311400 24005KT P6SM SCT025 BKN050=



000
FTUS46 KPQR 301933 AAA
TAFAST
TAF AMD
KAST 301933Z 3020/3118 19007KT P6SM -SHRA BKN005 OVC020
     FM302200 21010KT P6SM -SHRA SCT015 BKN025 OVC035
     FM310300 23006KT P6SM VCSH BKN025 OVC040
     FM310600 26006KT P6SM OVC020
     FM311400 20003KT P6SM BKN015 BKN025=



000
FTUS46 KPQR 301933 AAA
TAFAST
TAF AMD
KAST 301933Z 3020/3118 19007KT P6SM -SHRA BKN005 OVC020
     FM302200 21010KT P6SM -SHRA SCT015 BKN025 OVC035
     FM310300 23006KT P6SM VCSH BKN025 OVC040
     FM310600 26006KT P6SM OVC020
     FM311400 20003KT P6SM BKN015 BKN025=



000
FTUS46 KPQR 301852 AAA
TAFPDX
TAF AMD
KPDX 301852Z 3019/3118 20011KT P6SM VCSH SCT022 OVC045
      TEMPO 3019/3022 19012G18KT
     FM302200 25006KT P6SM -SHRA BKN035 OVC050
     FM310400 30004KT P6SM BKN050
     FM311400 00000KT P6SM SCT025 BKN050=



000
FTUS46 KPQR 301852 AAA
TAFPDX
TAF AMD
KPDX 301852Z 3019/3118 20011KT P6SM VCSH SCT022 OVC045
      TEMPO 3019/3022 19012G18KT
     FM302200 25006KT P6SM -SHRA BKN035 OVC050
     FM310400 30004KT P6SM BKN050
     FM311400 00000KT P6SM SCT025 BKN050=



000
FTUS46 KPQR 301720
TAFPDX
TAF
KPDX 301720Z 3018/3118 20005KT P6SM VCSH SCT022 OVC045
     FM302200 25006KT P6SM -SHRA BKN035 OVC050
     FM310400 30004KT P6SM BKN050
     FM311400 00000KT P6SM SCT025 BKN050=



000
FTUS46 KPQR 301720
TAFTTD
TAF
KTTD 301720Z 3018/3118 21004KT P6SM -SHRA SCT018 BKN028 OVC045
     FM302200 25006KT P6SM -SHRA BKN035 OVC050
     FM310400 25004KT P6SM SCT035 BKN050
     FM311200 00000KT P6SM BKN028 BKN050=



000
FTUS46 KPQR 301720
TAFONP
TAF
KONP 301720Z 3018/3118 20010KT P6SM -SHRA OVC007
     FM302100 25008KT P6SM -SHRA BKN015 OVC025
     FM310200 24003KT P6SM BKN007 OVC015
     FM310600 19003KT 3SM BR BKN003 OVC009=



000
FTUS46 KPQR 301720
TAFONP
TAF
KONP 301720Z 3018/3118 20010KT P6SM -SHRA OVC007
     FM302100 25008KT P6SM -SHRA BKN015 OVC025
     FM310200 24003KT P6SM BKN007 OVC015
     FM310600 19003KT 3SM BR BKN003 OVC009=



000
FTUS46 KPQR 301720
TAFPDX
TAF
KPDX 301720Z 3018/3118 20005KT P6SM VCSH SCT022 OVC045
     FM302200 25006KT P6SM -SHRA BKN035 OVC050
     FM310400 30004KT P6SM BKN050
     FM311400 00000KT P6SM SCT025 BKN050=



000
FTUS46 KPQR 301720
TAFAST
TAF
KAST 301720Z 3018/3118 19007KT P6SM -SHRA BKN015 OVC025
     FM302000 21010KT P6SM -SHRA SCT015 BKN025 OVC035
     FM310300 23006KT P6SM VCSH BKN025 OVC040
     FM310600 26006KT P6SM OVC020
     FM311400 20003KT P6SM BKN015 BKN025=



000
FTUS46 KPQR 301720
TAFHIO
TAF
KHIO 301720Z 3018/3118 19005KT P6SM VCSH SCT022 OVC045
     FM302200 24005KT P6SM -SHRA BKN035 OVC050
     FM310400 VRB03KT P6SM BKN050=



000
FTUS46 KPQR 301720
TAFAST
TAF
KAST 301720Z 3018/3118 19007KT P6SM -SHRA BKN015 OVC025
     FM302000 21010KT P6SM -SHRA SCT015 BKN025 OVC035
     FM310300 23006KT P6SM VCSH BKN025 OVC040
     FM310600 26006KT P6SM OVC020
     FM311400 20003KT P6SM BKN015 BKN025=



000
FTUS46 KPQR 301720
TAFTTD
TAF
KTTD 301720Z 3018/3118 21004KT P6SM -SHRA SCT018 BKN028 OVC045
     FM302200 25006KT P6SM -SHRA BKN035 OVC050
     FM310400 25004KT P6SM SCT035 BKN050
     FM311200 00000KT P6SM BKN028 BKN050=



000
FTUS46 KPQR 301720
TAFSLE
TAF
KSLE 301720Z 3018/3118 17008KT P6SM VCSH BKN015 OVC040
     FM301900 16008KT P6SM VCSH SCT025 BKN060
     FM302200 23010KT P6SM VCSH BKN035 OVC050
     FM310400 25005KT P6SM BKN060=



000
FTUS46 KPQR 301720
TAFEUG
TAF
KEUG 301720Z 3018/3118 20009KT P6SM SCT022 OVC035
     FM302200 34010KT P6SM VCSH BKN035 OVC050
     FM310400 25005KT P6SM BKN060=



000
FTUS46 KPQR 301720
TAFEUG
TAF
KEUG 301720Z 3018/3118 20009KT P6SM SCT022 OVC035
     FM302200 34010KT P6SM VCSH BKN035 OVC050
     FM310400 25005KT P6SM BKN060=



000
FTUS46 KPQR 301720
TAFSLE
TAF
KSLE 301720Z 3018/3118 17008KT P6SM VCSH BKN015 OVC040
     FM301900 16008KT P6SM VCSH SCT025 BKN060
     FM302200 23010KT P6SM VCSH BKN035 OVC050
     FM310400 25005KT P6SM BKN060=



000
FTUS46 KPQR 301720
TAFHIO
TAF
KHIO 301720Z 3018/3118 19005KT P6SM VCSH SCT022 OVC045
     FM302200 24005KT P6SM -SHRA BKN035 OVC050
     FM310400 VRB03KT P6SM BKN050=



000
FTUS46 KPQR 301709 AAB
TAFSLE
TAF AMD
KSLE 301709Z 3017/3112 17006KT 5SM -SHRA BR BKN012 OVC020
     FM301800 16004KT P6SM VCSH SCT025 BKN060
     FM302200 23006KT P6SM VCSH BKN035 OVC050
     FM310400 25007KT P6SM BKN060=



000
FTUS46 KPQR 301709 AAB
TAFSLE
TAF AMD
KSLE 301709Z 3017/3112 17006KT 5SM -SHRA BR BKN012 OVC020
     FM301800 16004KT P6SM VCSH SCT025 BKN060
     FM302200 23006KT P6SM VCSH BKN035 OVC050
     FM310400 25007KT P6SM BKN060=



000
FTUS46 KPQR 301709 AAA
TAFSLE
TAF AMD
KSLE 301709Z 3017/3112 17006KT P6SM -SHRA BKN012 OVC020
     FM301800 16004KT P6SM VCSH SCT025 BKN060
     FM302200 23006KT P6SM VCSH BKN035 OVC050
     FM310400 25007KT P6SM BKN060=



000
FTUS46 KPQR 301709 AAA
TAFSLE
TAF AMD
KSLE 301709Z 3017/3112 17006KT P6SM -SHRA BKN012 OVC020
     FM301800 16004KT P6SM VCSH SCT025 BKN060
     FM302200 23006KT P6SM VCSH BKN035 OVC050
     FM310400 25007KT P6SM BKN060=



000
FTUS46 KPQR 301448 AAA
TAFPDX
TAF AMD
KPDX 301448Z 3015/3112 19006KT P6SM VCSH FEW025 BKN050 OVC080
     FM301800 23005KT P6SM VCSH SCT022 OVC045
     FM302200 25006KT P6SM -SHRA BKN035 OVC050
     FM310400 30006KT P6SM BKN050=



000
FTUS46 KPQR 301448 AAA
TAFPDX
TAF AMD
KPDX 301448Z 3015/3112 19006KT P6SM VCSH FEW025 BKN050 OVC080
     FM301800 23005KT P6SM VCSH SCT022 OVC045
     FM302200 25006KT P6SM -SHRA BKN035 OVC050
     FM310400 30006KT P6SM BKN050=



000
FTUS46 KPQR 301130
TAFAST
TAF
KAST 301130Z 3012/3112 15005KT P6SM -SHRA BKN010 OVC045
     FM301700 19007KT P6SM -SHRA SCT015 OVC025
     FM302000 21010KT P6SM -SHRA SCT015 BKN025 OVC035
     FM310300 23006KT P6SM VCSH BKN025 OVC040
     FM310600 26006KT P6SM OVC020=



000
FTUS46 KPQR 301130
TAFAST
TAF
KAST 301130Z 3012/3112 15005KT P6SM -SHRA BKN010 OVC045
     FM301700 19007KT P6SM -SHRA SCT015 OVC025
     FM302000 21010KT P6SM -SHRA SCT015 BKN025 OVC035
     FM310300 23006KT P6SM VCSH BKN025 OVC040
     FM310600 26006KT P6SM OVC020=



000
FTUS46 KPQR 301130
TAFONP
TAF
KONP 301130Z 3012/3112 VRB03KT 1SM BR OVC005
     FM301600 20008KT P6SM VCSH OVC008
     FM302100 25010KT P6SM -SHRA BKN015 OVC025
     FM310200 24003KT P6SM BKN007 OVC015=



000
FTUS46 KPQR 301130
TAFPDX
TAF
KPDX 301130Z 3012/3112 31006KT P6SM VCSH BKN060 OVC080
      TEMPO 3013/3016 SCT015 BKN060
     FM301800 23005KT P6SM VCSH SCT022 OVC045
     FM302200 25006KT P6SM -SHRA BKN035 OVC050
     FM310400 30006KT P6SM BKN050=



000
FTUS46 KPQR 301130
TAFONP
TAF
KONP 301130Z 3012/3112 VRB03KT 1SM BR OVC005
     FM301600 20008KT P6SM VCSH OVC008
     FM302100 25010KT P6SM -SHRA BKN015 OVC025
     FM310200 24003KT P6SM BKN007 OVC015=



000
FTUS46 KPQR 301130
TAFPDX
TAF
KPDX 301130Z 3012/3112 31006KT P6SM VCSH BKN060 OVC080
      TEMPO 3013/3016 SCT015 BKN060
     FM301800 23005KT P6SM VCSH SCT022 OVC045
     FM302200 25006KT P6SM -SHRA BKN035 OVC050
     FM310400 30006KT P6SM BKN050=



000
FTUS46 KPQR 301130
TAFEUG
TAF
KEUG 301130Z 3012/3112 20004KT P6SM SCT080 OVC100
     FM301700 23005KT P6SM SCT022 OVC035
     FM302200 34006KT P6SM VCSH BKN035 OVC050
     FM310400 25007KT P6SM BKN060=



000
FTUS46 KPQR 301130
TAFEUG
TAF
KEUG 301130Z 3012/3112 20004KT P6SM SCT080 OVC100
     FM301700 23005KT P6SM SCT022 OVC035
     FM302200 34006KT P6SM VCSH BKN035 OVC050
     FM310400 25007KT P6SM BKN060=



000
FTUS46 KPQR 301130
TAFTTD
TAF
KTTD 301130Z 3012/3112 VRB02KT P6SM BKN060
     FM301400 00000KT P6SM BKN015 BKN070
     FM301700 21004KT P6SM VCSH SCT022 OVC045
     FM302200 25004KT P6SM -SHRA BKN035 OVC050
     FM310400 25006KT P6SM SCT035 BKN050=



000
FTUS46 KPQR 301130
TAFSLE
TAF
KSLE 301130Z 3012/3112 17006KT P6SM BKN045 OVC060
      TEMPO 3012/3014 -SHRA
     FM301600 16004KT P6SM VCSH SCT025 BKN060
     FM302200 23006KT P6SM VCSH BKN035 OVC050
     FM310400 25007KT P6SM BKN060=



000
FTUS46 KPQR 301130
TAFTTD
TAF
KTTD 301130Z 3012/3112 VRB02KT P6SM BKN060
     FM301400 00000KT P6SM BKN015 BKN070
     FM301700 21004KT P6SM VCSH SCT022 OVC045
     FM302200 25004KT P6SM -SHRA BKN035 OVC050
     FM310400 25006KT P6SM SCT035 BKN050=



000
FTUS46 KPQR 301130
TAFSLE
TAF
KSLE 301130Z 3012/3112 17006KT P6SM BKN045 OVC060
      TEMPO 3012/3014 -SHRA
     FM301600 16004KT P6SM VCSH SCT025 BKN060
     FM302200 23006KT P6SM VCSH BKN035 OVC050
     FM310400 25007KT P6SM BKN060=



000
FTUS46 KPQR 301130
TAFHIO
TAF
KHIO 301130Z 3012/3112 32004KT P6SM VCSH BKN045 OVC060
     FM301500 23005KT P6SM VCSH SCT022 OVC045
     FM302200 24005KT P6SM -SHRA BKN035 OVC050
     FM310400 VRB03KT P6SM BKN050=



000
FTUS46 KPQR 301130
TAFHIO
TAF
KHIO 301130Z 3012/3112 32004KT P6SM VCSH BKN045 OVC060
     FM301500 23005KT P6SM VCSH SCT022 OVC045
     FM302200 24005KT P6SM -SHRA BKN035 OVC050
     FM310400 VRB03KT P6SM BKN050=



000
FTUS46 KPQR 300905 AAA
TAFEUG
TAF AMD
KEUG 300905Z 3009/3106 20004KT P6SM SCT080 OVC100
     FM301800 23005KT P6SM SCT022 OVC035
     FM302200 34006KT P6SM VCSH BKN035 OVC050=



000
FTUS46 KPQR 300905 AAA
TAFEUG
TAF AMD
KEUG 300905Z 3009/3106 20004KT P6SM SCT080 OVC100
     FM301800 23005KT P6SM SCT022 OVC035
     FM302200 34006KT P6SM VCSH BKN035 OVC050=



000
FTUS46 KPQR 300904 AAA
TAFSLE
TAF AMD
KSLE 300904Z 3009/3106 VRB03KT P6SM SCT045 BKN070
     FM301300 28004KT P6SM SCT020 BKN070
     FM301800 23005KT P6SM SCT022 OVC035
     FM302200 34006KT P6SM VCSH BKN035 OVC050=



000
FTUS46 KPQR 300904 AAA
TAFSLE
TAF AMD
KSLE 300904Z 3009/3106 VRB03KT P6SM SCT045 BKN070
     FM301300 28004KT P6SM SCT020 BKN070
     FM301800 23005KT P6SM SCT022 OVC035
     FM302200 34006KT P6SM VCSH BKN035 OVC050=



000
FTUS46 KPQR 300901 AAA
TAFTTD
TAF AMD
KTTD 300901Z 3009/3106 VRB02KT P6SM BKN060
     FM301300 00000KT P6SM BKN015 BKN070
     FM301800 23005KT P6SM VCSH SCT022 OVC035
     FM302200 31006KT P6SM -SHRA BKN035 OVC050=



000
FTUS46 KPQR 300901 AAA
TAFTTD
TAF AMD
KTTD 300901Z 3009/3106 VRB02KT P6SM BKN060
     FM301300 00000KT P6SM BKN015 BKN070
     FM301800 23005KT P6SM VCSH SCT022 OVC035
     FM302200 31006KT P6SM -SHRA BKN035 OVC050=



000
FTUS46 KPQR 300859 AAA
TAFPDX
TAF AMD
KPDX 300859Z 3009/3106 31006KT P6SM BKN060 OVC080
     FM301300 31006KT P6SM SCT015 BKN060
     FM301800 23005KT P6SM VCSH SCT022 OVC035
     FM302200 31006KT P6SM -SHRA BKN035 OVC050=



000
FTUS46 KPQR 300859 AAA
TAFPDX
TAF AMD
KPDX 300859Z 3009/3106 31006KT P6SM BKN060 OVC080
     FM301300 31006KT P6SM SCT015 BKN060
     FM301800 23005KT P6SM VCSH SCT022 OVC035
     FM302200 31006KT P6SM -SHRA BKN035 OVC050=



000
FTUS46 KPQR 300851 AAA
TAFONP
TAF AMD
KONP 300851Z 3009/3106 VRB03KT 3SM BR OVC005
     FM301600 VRB05KT P6SM VCSH OVC010
     FM302000 23010KT P6SM -SHRA BKN015 OVC025
     FM310200 24003KT P6SM BKN007 OVC015=



000
FTUS46 KPQR 300851 AAA
TAFAST
TAF AMD
KAST 300851Z 3009/3106 23006KT P6SM BKN008
     FM301200 18005KT P6SM VCSH OVC015
     FM301700 19007KT P6SM -SHRA SCT015 OVC025
     FM302000 21010KT P6SM -SHRA SCT015 BKN025 OVC035
     FM310300 23006KT P6SM BKN035=



000
FTUS46 KPQR 300851 AAA
TAFAST
TAF AMD
KAST 300851Z 3009/3106 23006KT P6SM BKN008
     FM301200 18005KT P6SM VCSH OVC015
     FM301700 19007KT P6SM -SHRA SCT015 OVC025
     FM302000 21010KT P6SM -SHRA SCT015 BKN025 OVC035
     FM310300 23006KT P6SM BKN035=



000
FTUS46 KPQR 300851 AAA
TAFONP
TAF AMD
KONP 300851Z 3009/3106 VRB03KT 3SM BR OVC005
     FM301600 VRB05KT P6SM VCSH OVC010
     FM302000 23010KT P6SM -SHRA BKN015 OVC025
     FM310200 24003KT P6SM BKN007 OVC015=



000
FTUS46 KPQR 300541
TAFAST
TAF
KAST 300541Z 3006/3106 23006KT P6SM BKN003
     FM301200 18005KT P6SM VCSH OVC015
     FM301700 19007KT P6SM -SHRA SCT015 OVC025
     FM302000 21010KT P6SM -SHRA SCT015 BKN025 OVC035
     FM310300 23006KT P6SM BKN035=



000
FTUS46 KPQR 300541
TAFPDX
TAF
KPDX 300541Z 3006/3106 33004KT P6SM SCT050 SCT070 BKN150
     FM301000 15003KT P6SM OVC022
     FM301800 23005KT P6SM VCSH SCT022 OVC035
     FM302200 31006KT P6SM -SHRA BKN035 OVC050=



000
FTUS46 KPQR 300541
TAFEUG
TAF
KEUG 300541Z 3006/3106 29004KT P6SM SCT050
     FM300900 VRB03KT P6SM OVC015
     FM301800 23005KT P6SM SCT022 OVC035
     FM302200 34006KT P6SM VCSH BKN035 OVC050=



000
FTUS46 KPQR 300541
TAFHIO
TAF
KHIO 300541Z 3006/3106 32004KT P6SM SCT070
     FM301100 00000KT P6SM OVC022
     FM301800 23005KT P6SM VCSH SCT022 OVC035
     FM302200 31006KT P6SM -SHRA BKN035 OVC050=



000
FTUS46 KPQR 300541
TAFONP
TAF
KONP 300541Z 3006/3106 VRB03KT 1/2SM FG OVC002
     FM301400 VRB03KT 3SM BR OVC003
     FM301600 VRB05KT P6SM VCSH OVC010
     FM302000 23010KT P6SM -SHRA BKN015 OVC025
     FM310200 24003KT P6SM BKN007 OVC015=



000
FTUS46 KPQR 300541
TAFSLE
TAF
KSLE 300541Z 3006/3106 30006KT P6SM SCT070
     FM301000 28004KT P6SM OVC025
     FM301800 23005KT P6SM SCT022 OVC035
     FM302200 34006KT P6SM VCSH BKN035 OVC050=



000
FTUS46 KPQR 300541
TAFTTD
TAF
KTTD 300541Z 3006/3106 VRB02KT P6SM SCT070
     FM300900 00000KT P6SM OVC025
     FM301800 23005KT P6SM VCSH SCT022 OVC035
     FM302200 31006KT P6SM -SHRA BKN035 OVC050=



000
FTUS46 KPQR 300541
TAFONP
TAF
KONP 300541Z 3006/3106 VRB03KT 1/2SM FG OVC002
     FM301400 VRB03KT 3SM BR OVC003
     FM301600 VRB05KT P6SM VCSH OVC010
     FM302000 23010KT P6SM -SHRA BKN015 OVC025
     FM310200 24003KT P6SM BKN007 OVC015=



000
FTUS46 KPQR 300541
TAFSLE
TAF
KSLE 300541Z 3006/3106 30006KT P6SM SCT070
     FM301000 28004KT P6SM OVC025
     FM301800 23005KT P6SM SCT022 OVC035
     FM302200 34006KT P6SM VCSH BKN035 OVC050=



000
FTUS46 KPQR 300541
TAFAST
TAF
KAST 300541Z 3006/3106 23006KT P6SM BKN003
     FM301200 18005KT P6SM VCSH OVC015
     FM301700 19007KT P6SM -SHRA SCT015 OVC025
     FM302000 21010KT P6SM -SHRA SCT015 BKN025 OVC035
     FM310300 23006KT P6SM BKN035=



000
FTUS46 KPQR 300541
TAFPDX
TAF
KPDX 300541Z 3006/3106 33004KT P6SM SCT050 SCT070 BKN150
     FM301000 15003KT P6SM OVC022
     FM301800 23005KT P6SM VCSH SCT022 OVC035
     FM302200 31006KT P6SM -SHRA BKN035 OVC050=



000
FTUS46 KPQR 300541
TAFTTD
TAF
KTTD 300541Z 3006/3106 VRB02KT P6SM SCT070
     FM300900 00000KT P6SM OVC025
     FM301800 23005KT P6SM VCSH SCT022 OVC035
     FM302200 31006KT P6SM -SHRA BKN035 OVC050=



000
FTUS46 KPQR 300541
TAFHIO
TAF
KHIO 300541Z 3006/3106 32004KT P6SM SCT070
     FM301100 00000KT P6SM OVC022
     FM301800 23005KT P6SM VCSH SCT022 OVC035
     FM302200 31006KT P6SM -SHRA BKN035 OVC050=



000
FTUS46 KPQR 300541
TAFEUG
TAF
KEUG 300541Z 3006/3106 29004KT P6SM SCT050
     FM300900 VRB03KT P6SM OVC015
     FM301800 23005KT P6SM SCT022 OVC035
     FM302200 34006KT P6SM VCSH BKN035 OVC050=



000
FTUS46 KPQR 300256 AAA
TAFPDX
TAF AMD
KPDX 300256Z 3003/3024 35004KT P6SM SCT050 SCT070 BKN150
     FM301000 15003KT P6SM OVC022
     FM301800 23005KT P6SM SCT022 OVC035
     FM302200 31006KT P6SM BKN035 OVC050=



000
FTUS46 KPQR 300256 AAA
TAFPDX
TAF AMD
KPDX 300256Z 3003/3024 35004KT P6SM SCT050 SCT070 BKN150
     FM301000 15003KT P6SM OVC022
     FM301800 23005KT P6SM SCT022 OVC035
     FM302200 31006KT P6SM BKN035 OVC050=



000
FTUS46 KPQR 300245 AAA
TAFONP
TAF AMD
KONP 300245Z 3003/3024 25004KT 1/2SM FG OVC002
     FM301400 VRB03KT 3SM BR OVC003
     FM301600 VRB05KT P6SM OVC010=



000
FTUS46 KPQR 292339
TAFEUG
TAF
KEUG 292339Z 3000/3024 33006KT P6SM BKN050
     FM300300 VRB03KT P6SM BKN050
     FM300900 VRB03KT P6SM OVC015
     FM301800 23005KT P6SM SCT022 OVC035
     FM302200 34006KT P6SM BKN035 OVC050=



000
FTUS46 KPQR 292339
TAFPDX
TAF
KPDX 292339Z 3000/3024 32006KT P6SM BKN040 BKN050
     FM300300 VRB05KT P6SM VCSH BKN035 OVC050
     FM300500 VRB03KT P6SM OVC035
     FM301000 15003KT P6SM OVC022
     FM301800 23005KT P6SM SCT022 OVC035
     FM302200 31006KT P6SM BKN035 OVC050=



000
FTUS46 KPQR 292339
TAFTTD
TAF
KTTD 292339Z 3000/3024 VRB04KT P6SM BKN050
     FM300300 VRB03KT P6SM VCSH BKN035 OVC050
     FM300500 00000KT P6SM OVC035
     FM300900 00000KT P6SM OVC025
     FM301800 23005KT P6SM SCT022 OVC035
     FM302200 31006KT P6SM BKN035 OVC050=



000
FTUS46 KPQR 292339
TAFHIO
TAF
KHIO 292339Z 3000/3024 34006KT P6SM BKN050 BKN060
     FM300200 34006KT P6SM VCSH SCT035 OVC050
     FM300400 VRB03KT P6SM BKN050
     FM301100 00000KT P6SM OVC022
     FM301800 23005KT P6SM SCT022 OVC035
     FM302200 31006KT P6SM BKN035 OVC050=



000
FTUS46 KPQR 292339
TAFONP
TAF
KONP 292339Z 3000/3024 23004KT 2SM BR OVC003
     FM300900 00000KT 1SM BR OVC003
     FM301600 VRB05KT P6SM OVC010=



000
FTUS46 KPQR 292339
TAFAST
TAF
KAST 292339Z 3000/3024 24007KT P6SM BKN013
     FM300100 27007KT P6SM VCSH OVC013
     FM300400 VRB04KT P6SM OVC005
     FM301200 18005KT P6SM OVC015
     FM301900 23010KT P6SM VCSH SCT015 OVC025=



000
FTUS46 KPQR 292339
TAFSLE
TAF
KSLE 292339Z 3000/3024 30008KT P6SM BKN050
     FM301000 28004KT P6SM OVC025
     FM301800 23005KT P6SM SCT022 OVC035
     FM302200 34006KT P6SM BKN035 OVC050=



000
FTUS46 KPQR 292339
TAFAST
TAF
KAST 292339Z 3000/3024 24007KT P6SM BKN013
     FM300100 27007KT P6SM VCSH OVC013
     FM300400 VRB04KT P6SM OVC005
     FM301200 18005KT P6SM OVC015
     FM301900 23010KT P6SM VCSH SCT015 OVC025=



000
FTUS46 KPQR 292339
TAFEUG
TAF
KEUG 292339Z 3000/3024 33006KT P6SM BKN050
     FM300300 VRB03KT P6SM BKN050
     FM300900 VRB03KT P6SM OVC015
     FM301800 23005KT P6SM SCT022 OVC035
     FM302200 34006KT P6SM BKN035 OVC050=



000
FTUS46 KPQR 292339
TAFPDX
TAF
KPDX 292339Z 3000/3024 32006KT P6SM BKN040 BKN050
     FM300300 VRB05KT P6SM VCSH BKN035 OVC050
     FM300500 VRB03KT P6SM OVC035
     FM301000 15003KT P6SM OVC022
     FM301800 23005KT P6SM SCT022 OVC035
     FM302200 31006KT P6SM BKN035 OVC050=



000
FTUS46 KPQR 292339
TAFTTD
TAF
KTTD 292339Z 3000/3024 VRB04KT P6SM BKN050
     FM300300 VRB03KT P6SM VCSH BKN035 OVC050
     FM300500 00000KT P6SM OVC035
     FM300900 00000KT P6SM OVC025
     FM301800 23005KT P6SM SCT022 OVC035
     FM302200 31006KT P6SM BKN035 OVC050=



000
FTUS46 KPQR 292339
TAFONP
TAF
KONP 292339Z 3000/3024 23004KT 2SM BR OVC003
     FM300900 00000KT 1SM BR OVC003
     FM301600 VRB05KT P6SM OVC010=



000
FTUS46 KPQR 292339
TAFHIO
TAF
KHIO 292339Z 3000/3024 34006KT P6SM BKN050 BKN060
     FM300200 34006KT P6SM VCSH SCT035 OVC050
     FM300400 VRB03KT P6SM BKN050
     FM301100 00000KT P6SM OVC022
     FM301800 23005KT P6SM SCT022 OVC035
     FM302200 31006KT P6SM BKN035 OVC050=



000
FTUS46 KPQR 292339
TAFSLE
TAF
KSLE 292339Z 3000/3024 30008KT P6SM BKN050
     FM301000 28004KT P6SM OVC025
     FM301800 23005KT P6SM SCT022 OVC035
     FM302200 34006KT P6SM BKN035 OVC050=



000
FTUS46 KPQR 292143 AAA
TAFONP
TAF AMD
KONP 292143Z 2922/3018 27005KT P6SM OVC005
     FM292300 28006KT P6SM OVC009
     FM300200 33006KT P6SM OVC015
     FM300900 00000KT 1SM BR OVC004
     FM301600 VRB05KT P6SM OVC010=



000
FTUS46 KPQR 292143 AAA
TAFONP
TAF AMD
KONP 292143Z 2922/3018 27005KT P6SM OVC005
     FM292300 28006KT P6SM OVC009
     FM300200 33006KT P6SM OVC015
     FM300900 00000KT 1SM BR OVC004
     FM301600 VRB05KT P6SM OVC010=



000
FTUS46 KPQR 292111 AAB
TAFPDX
TAF AMD
KPDX 292111Z 2921/3018 29006KT P6SM BKN040 BKN050
     FM300300 VRB05KT P6SM OVC050
     FM301000 15003KT P6SM OVC022=



000
FTUS46 KPQR 292054 AAA
TAFAST
TAF AMD
KAST 292054Z 2921/3018 24009KT P6SM BKN015
     FM292200 24010KT P6SM SCT025 SCT050
     FM300200 27007KT P6SM OVC018
     FM300600 VRB04KT P6SM OVC005
     FM301200 18005KT P6SM OVC015=



000
FTUS46 KPQR 292054 AAA
TAFAST
TAF AMD
KAST 292054Z 2921/3018 24009KT P6SM BKN015
     FM292200 24010KT P6SM SCT025 SCT050
     FM300200 27007KT P6SM OVC018
     FM300600 VRB04KT P6SM OVC005
     FM301200 18005KT P6SM OVC015=



000
FTUS46 KPQR 291943 AAA
TAFTTD
TAF AMD
KTTD 291943Z 2920/3018 VRB03KT P6SM BKN035 BKN050
     FM300200 00000KT P6SM OVC050
     FM300900 00000KT P6SM OVC025=



000
FTUS46 KPQR 291943 AAA
TAFTTD
TAF AMD
KTTD 291943Z 2920/3018 VRB03KT P6SM BKN035 BKN050
     FM300200 00000KT P6SM OVC050
     FM300900 00000KT P6SM OVC025=



000
FTUS46 KPQR 291942 AAA
TAFHIO
TAF AMD
KHIO 291942Z 2920/3018 VRB03KT P6SM SCT028 BKN050
     FM300100 32008KT P6SM BKN050
     FM301100 00000KT P6SM OVC022=



000
FTUS46 KPQR 291942 AAA
TAFHIO
TAF AMD
KHIO 291942Z 2920/3018 VRB03KT P6SM SCT028 BKN050
     FM300100 32008KT P6SM BKN050
     FM301100 00000KT P6SM OVC022=



000
FTUS46 KPQR 291941 AAA
TAFPDX
TAF AMD
KPDX 291941Z 2920/3018 30006KT P6SM BKN035 BKN050
     FM300300 VRB05KT P6SM OVC050
     FM301000 15003KT P6SM OVC022=



000
FTUS46 KPQR 291941 AAA
TAFPDX
TAF AMD
KPDX 291941Z 2920/3018 30006KT P6SM BKN035 BKN050
     FM300300 VRB05KT P6SM OVC050
     FM301000 15003KT P6SM OVC022=



000
FTUS46 KPQR 291742
TAFAST
TAF
KAST 291742Z 2918/3018 24003KT P6SM -RA OVC012
     FM292000 27009KT P6SM BKN021
     FM300200 27007KT P6SM OVC018
     FM300600 VRB04KT P6SM OVC005
     FM301200 18005KT P6SM OVC015=



000
FTUS46 KPQR 291742
TAFONP
TAF
KONP 291742Z 2918/3018 00000KT P6SM OVC007
     FM291800 25006KT 5SM BR OVC009
     FM300200 33006KT P6SM OVC015
     FM300900 00000KT 1SM BR OVC004
     FM301600 VRB05KT P6SM OVC010=



000
FTUS46 KPQR 291742
TAFHIO
TAF
KHIO 291742Z 2918/3018 28004KT P6SM OVC022
     FM292100 VRB03KT P6SM BKN035 BKN050
     FM300100 32008KT P6SM BKN050
     FM301100 00000KT P6SM OVC022=



000
FTUS46 KPQR 291742
TAFEUG
TAF
KEUG 291742Z 2918/3018 18003KT P6SM BKN025 BKN040
     FM291900 29007KT P6SM SCT050 SCT250
     FM300300 28005KT P6SM SCT250
     FM300900 20004KT P6SM OVC015=



000
FTUS46 KPQR 291742
TAFSLE
TAF
KSLE 291742Z 2918/3018 VRB03KT P6SM SCT018 BKN035
     FM292100 30008KT P6SM SCT030 BKN050
     FM301000 28004KT P6SM OVC025=



000
FTUS46 KPQR 291742
TAFPDX
TAF
KPDX 291742Z 2918/3018 29003KT P6SM BKN025 BKN040
     FM292100 30007KT P6SM SCT035 BKN070
     FM300300 VRB05KT P6SM OVC050
     FM301000 15003KT P6SM OVC022=



000
FTUS46 KPQR 291742
TAFTTD
TAF
KTTD 291742Z 2918/3018 VRB03KT P6SM BKN018 OVC025
     FM291900 VRB03KT P6SM OVC025
     FM292100 27005KT P6SM BKN035
     FM300200 00000KT P6SM OVC050
     FM300900 00000KT P6SM OVC025=



000
FTUS46 KPQR 291742
TAFONP
TAF
KONP 291742Z 2918/3018 00000KT P6SM OVC007
     FM291800 25006KT 5SM BR OVC009
     FM300200 33006KT P6SM OVC015
     FM300900 00000KT 1SM BR OVC004
     FM301600 VRB05KT P6SM OVC010=



000
FTUS46 KPQR 291742
TAFSLE
TAF
KSLE 291742Z 2918/3018 VRB03KT P6SM SCT018 BKN035
     FM292100 30008KT P6SM SCT030 BKN050
     FM301000 28004KT P6SM OVC025=



000
FTUS46 KPQR 291742
TAFAST
TAF
KAST 291742Z 2918/3018 24003KT P6SM -RA OVC012
     FM292000 27009KT P6SM BKN021
     FM300200 27007KT P6SM OVC018
     FM300600 VRB04KT P6SM OVC005
     FM301200 18005KT P6SM OVC015=



000
FTUS46 KPQR 291742
TAFEUG
TAF
KEUG 291742Z 2918/3018 18003KT P6SM BKN025 BKN040
     FM291900 29007KT P6SM SCT050 SCT250
     FM300300 28005KT P6SM SCT250
     FM300900 20004KT P6SM OVC015=



000
FTUS46 KPQR 291742
TAFPDX
TAF
KPDX 291742Z 2918/3018 29003KT P6SM BKN025 BKN040
     FM292100 30007KT P6SM SCT035 BKN070
     FM300300 VRB05KT P6SM OVC050
     FM301000 15003KT P6SM OVC022=



000
FTUS46 KPQR 291742
TAFTTD
TAF
KTTD 291742Z 2918/3018 VRB03KT P6SM BKN018 OVC025
     FM291900 VRB03KT P6SM OVC025
     FM292100 27005KT P6SM BKN035
     FM300200 00000KT P6SM OVC050
     FM300900 00000KT P6SM OVC025=



000
FTUS46 KPQR 291742
TAFHIO
TAF
KHIO 291742Z 2918/3018 28004KT P6SM OVC022
     FM292100 VRB03KT P6SM BKN035 BKN050
     FM300100 32008KT P6SM BKN050
     FM301100 00000KT P6SM OVC022=



000
FTUS46 KPQR 291535 AAA
TAFEUG
TAF AMD
KEUG 291535Z 2916/3012 18003KT P6SM BKN020 BKN035
     FM292000 29007KT P6SM SCT050 SCT250
     FM300300 28005KT P6SM SCT250
     FM300900 20004KT P6SM OVC050=



000
FTUS46 KPQR 291535 AAA
TAFEUG
TAF AMD
KEUG 291535Z 2916/3012 18003KT P6SM BKN020 BKN035
     FM292000 29007KT P6SM SCT050 SCT250
     FM300300 28005KT P6SM SCT250
     FM300900 20004KT P6SM OVC050=



000
FTUS46 KPQR 291531 AAB
TAFSLE
TAF AMD
KSLE 291531Z 2916/3012 VRB03KT P6SM SCT018 SCT030
     FM291700 00000KT P6SM BKN018 BKN030
     FM292000 30008KT P6SM SCT030 SCT050
     FM300700 28004KT P6SM OVC025=



000
FTUS46 KPQR 291531 AAB
TAFSLE
TAF AMD
KSLE 291531Z 2916/3012 VRB03KT P6SM SCT018 SCT030
     FM291700 00000KT P6SM BKN018 BKN030
     FM292000 30008KT P6SM SCT030 SCT050
     FM300700 28004KT P6SM OVC025=



000
FTUS46 KPQR 291527 AAB
TAFHIO
TAF AMD
KHIO 291527Z 2915/3012 28004KT P6SM OVC011
     FM291800 VRB03KT P6SM OVC018
     FM292000 VRB03KT P6SM BKN025
     FM292100 VRB03KT P6SM SCT030 BKN050
     FM300100 32008KT P6SM BKN050=



000
FTUS46 KPQR 291527 AAB
TAFHIO
TAF AMD
KHIO 291527Z 2915/3012 28004KT P6SM OVC011
     FM291800 VRB03KT P6SM OVC018
     FM292000 VRB03KT P6SM BKN025
     FM292100 VRB03KT P6SM SCT030 BKN050
     FM300100 32008KT P6SM BKN050=



000
FTUS46 KPQR 291524 AAC
TAFONP
TAF AMD
KONP 291524Z 2915/3012 00000KT P6SM OVC007
     FM291800 25006KT 5SM BR OVC009
     FM300200 33006KT 1 1/2SM BR OVC003
     FM300600 00000KT 1/2SM FG OVC001=



000
FTUS46 KPQR 291524 AAC
TAFONP
TAF AMD
KONP 291524Z 2915/3012 00000KT P6SM OVC007
     FM291800 25006KT 5SM BR OVC009
     FM300200 33006KT 1 1/2SM BR OVC003
     FM300600 00000KT 1/2SM FG OVC001=



000
FTUS46 KPQR 291521 AAA
TAFAST
TAF AMD
KAST 291521Z 2915/3012 16004KT 3SM -DZ BR OVC003
     FM291600 22005KT 5SM -DZ BR OVC006
     FM291800 24005KT P6SM -RA OVC012
     FM292000 27009KT P6SM BKN020
     FM300200 27007KT P6SM OVC018
     FM300600 VRB04KT P6SM OVC007=



000
FTUS46 KPQR 291521 AAA
TAFAST
TAF AMD
KAST 291521Z 2915/3012 16004KT 3SM -DZ BR OVC003
     FM291600 22005KT 5SM -DZ BR OVC006
     FM291800 24005KT P6SM -RA OVC012
     FM292000 27009KT P6SM BKN020
     FM300200 27007KT P6SM OVC018
     FM300600 VRB04KT P6SM OVC007=



000
FTUS46 KPQR 291508 AAA
TAFPDX
TAF AMD
KPDX 291508Z 2915/3012 29003KT P6SM BKN015
     FM291800 34003KT P6SM OVC018
     FM292000 31006KT P6SM BKN025
     FM292100 30007KT P6SM SCT030 SCT150
     FM300400 31006KT P6SM OVC050=



000
FTUS46 KPQR 291508 AAA
TAFPDX
TAF AMD
KPDX 291508Z 2915/3012 29003KT P6SM BKN015
     FM291800 34003KT P6SM OVC018
     FM292000 31006KT P6SM BKN025
     FM292100 30007KT P6SM SCT030 SCT150
     FM300400 31006KT P6SM OVC050=



000
FTUS46 KPQR 291247 AAB
TAFONP
TAF AMD
KONP 291247Z 2913/3012 00000KT 4SM BR OVC005
     FM291800 25006KT 5SM BR OVC007
     FM300200 33006KT 1 1/2SM BR OVC003
     FM300600 00000KT 1/2SM FG OVC001=



000
FTUS46 KPQR 291247 AAB
TAFONP
TAF AMD
KONP 291247Z 2913/3012 00000KT 4SM BR OVC005
     FM291800 25006KT 5SM BR OVC007
     FM300200 33006KT 1 1/2SM BR OVC003
     FM300600 00000KT 1/2SM FG OVC001=



000
FTUS46 KPQR 291246 AAA
TAFSLE
TAF AMD
KSLE 291246Z 2913/3012 00000KT P6SM BKN012
     FM291400 VRB03KT P6SM OVC012
     FM292000 30008KT P6SM SCT015 BKN120
     FM300700 28004KT P6SM OVC050=



000
FTUS46 KPQR 291246 AAA
TAFSLE
TAF AMD
KSLE 291246Z 2913/3012 00000KT P6SM BKN012
     FM291400 VRB03KT P6SM OVC012
     FM292000 30008KT P6SM SCT015 BKN120
     FM300700 28004KT P6SM OVC050=



000
FTUS46 KPQR 291219 AAA
TAFHIO
TAF AMD
KHIO 291219Z 2912/3012 28004KT P6SM OVC040
     FM292000 32006KT P6SM SCT012 BKN025
     FM300100 32008KT P6SM BKN070
     FM300700 00000KT P6SM OVC050=



000
FTUS46 KPQR 291218 AAA
TAFONP
TAF AMD
KONP 291218Z 2912/3012 00000KT 1 1/2SM BR OVC003
      TEMPO 2912/2914 1/2SM FG OVC002
     FM291800 25006KT 3SM BR OVC006
     FM300200 33006KT 1 1/2SM BR OVC003
     FM300600 00000KT 1/2SM FG OVC001=



000
FTUS46 KPQR 291120
TAFTTD
TAF
KTTD 291120Z 2912/3012 VRB03KT P6SM OVC011
     FM292000 27005KT P6SM SCT012 BKN035
     FM300600 00000KT P6SM OVC050
     FM300900 00000KT P6SM OVC025=



000
FTUS46 KPQR 291120
TAFSLE
TAF
KSLE 291120Z 2912/3012 VRB03KT P6SM SKC
     FM291400 VRB03KT P6SM BKN018
     FM292000 30008KT P6SM SCT015 BKN120
     FM300700 28004KT P6SM OVC050=



000
FTUS46 KPQR 291120
TAFONP
TAF
KONP 291120Z 2912/3012 00000KT 1/2SM FG OVC001
     FM291800 25006KT 3SM BR OVC006
     FM300200 33006KT 1 1/2SM BR OVC003
     FM300600 00000KT 1/2SM FG OVC001=



000
FTUS46 KPQR 291120
TAFTTD
TAF
KTTD 291120Z 2912/3012 VRB03KT P6SM OVC011
     FM292000 27005KT P6SM SCT012 BKN035
     FM300600 00000KT P6SM OVC050
     FM300900 00000KT P6SM OVC025=



000
FTUS46 KPQR 291120
TAFHIO
TAF
KHIO 291120Z 2912/3012 28004KT P6SM SCT014
     FM291400 29003KT P6SM OVC012
     FM292000 32006KT P6SM SCT012 BKN025
     FM300100 32008KT P6SM BKN070
     FM300700 00000KT P6SM OVC050=



000
FTUS46 KPQR 291120
TAFONP
TAF
KONP 291120Z 2912/3012 00000KT 1/2SM FG OVC001
     FM291800 25006KT 3SM BR OVC006
     FM300200 33006KT 1 1/2SM BR OVC003
     FM300600 00000KT 1/2SM FG OVC001=



000
FTUS46 KPQR 291120
TAFAST
TAF
KAST 291120Z 2912/3012 26004KT 3SM BR OVC009
     FM291600 22005KT P6SM OVC014
     FM292200 27009KT P6SM BKN020
     FM300200 27007KT P6SM OVC018
     FM300600 VRB04KT P6SM OVC007=



000
FTUS46 KPQR 291120
TAFPDX
TAF
KPDX 291120Z 2912/3012 29003KT P6SM BKN012
     FM291400 34003KT P6SM OVC018
     FM292000 31006KT P6SM SCT012 BKN025
     FM300400 31006KT P6SM OVC050=



000
FTUS46 KPQR 291120
TAFSLE
TAF
KSLE 291120Z 2912/3012 VRB03KT P6SM SKC
     FM291400 VRB03KT P6SM BKN018
     FM292000 30008KT P6SM SCT015 BKN120
     FM300700 28004KT P6SM OVC050=



000
FTUS46 KPQR 291120
TAFPDX
TAF
KPDX 291120Z 2912/3012 29003KT P6SM BKN012
     FM291400 34003KT P6SM OVC018
     FM292000 31006KT P6SM SCT012 BKN025
     FM300400 31006KT P6SM OVC050=



000
FTUS46 KPQR 291120
TAFEUG
TAF
KEUG 291120Z 2912/3012 19005KT P6SM SKC
     FM291400 VRB04KT P6SM OVC014
     FM292000 29007KT P6SM SCT011 BKN200
     FM300300 28005KT P6SM SCT250
     FM300900 20004KT P6SM OVC050=



000
FTUS46 KPQR 291120
TAFHIO
TAF
KHIO 291120Z 2912/3012 28004KT P6SM SCT014
     FM291400 29003KT P6SM OVC012
     FM292000 32006KT P6SM SCT012 BKN025
     FM300100 32008KT P6SM BKN070
     FM300700 00000KT P6SM OVC050=



000
FTUS46 KPQR 291120
TAFEUG
TAF
KEUG 291120Z 2912/3012 19005KT P6SM SKC
     FM291400 VRB04KT P6SM OVC014
     FM292000 29007KT P6SM SCT011 BKN200
     FM300300 28005KT P6SM SCT250
     FM300900 20004KT P6SM OVC050=



000
FTUS46 KPQR 291120
TAFAST
TAF
KAST 291120Z 2912/3012 26004KT 3SM BR OVC009
     FM291600 22005KT P6SM OVC014
     FM292200 27009KT P6SM BKN020
     FM300200 27007KT P6SM OVC018
     FM300600 VRB04KT P6SM OVC007=



000
FTUS46 KPQR 291020 AAB
TAFPDX
TAF AMD
KPDX 291020Z 2910/3006 33004KT P6SM FEW250
     FM291100 29003KT P6SM BKN012
     FM291300 34003KT P6SM OVC012
     FM292000 31006KT P6SM SCT012 BKN025=



000
FTUS46 KPQR 291020 AAB
TAFPDX
TAF AMD
KPDX 291020Z 2910/3006 33004KT P6SM FEW250
     FM291100 29003KT P6SM BKN012
     FM291300 34003KT P6SM OVC012
     FM292000 31006KT P6SM SCT012 BKN025=



000
FTUS46 KPQR 290904 AAA
TAFONP
TAF AMD
KONP 290904Z 2909/3006 00000KT 1/2SM FG OVC001
     FM291600 VRB02KT 3SM BR OVC007
     FM292000 33007KT P6SM OVC012=



000
FTUS46 KPQR 290904 AAA
TAFONP
TAF AMD
KONP 290904Z 2909/3006 00000KT 1/2SM FG OVC001
     FM291600 VRB02KT 3SM BR OVC007
     FM292000 33007KT P6SM OVC012=



000
FTUS46 KPQR 290902 AAA
TAFPDX
TAF AMD
KPDX 290902Z 2909/3006 33004KT P6SM FEW250
     FM291200 34003KT P6SM OVC012
     FM292000 31006KT P6SM SCT012 BKN025=



000
FTUS46 KPQR 290902 AAA
TAFPDX
TAF AMD
KPDX 290902Z 2909/3006 33004KT P6SM FEW250
     FM291200 34003KT P6SM OVC012
     FM292000 31006KT P6SM SCT012 BKN025=



    US Dept of Commerce
    National Oceanic and Atmospheric Administration
    National Weather Service
    1325 East West Highway
    Silver Spring, MD 20910
    Page Author: NWS Internet Services Team
Disclaimer
Information Quality
Credits
Glossary
Privacy Policy
Freedom of Information Act (FOIA)
About Us
Career Opportunities